sensor_id;sensor_type;location;lat;lon;timestamp;P1;durP1;ratioP1;P2;durP2;ratioP2
42904;SDS011;28550;51.228;4.528;2023-09-07T00:00:14;10.25;;;8.35;;
42904;SDS011;28550;51.228;4.528;2023-09-07T00:02:40;10.95;;;8.82;;
42904;SDS011;28550;51.228;4.528;2023-09-07T00:05:06;10.45;;;7.88;;
42904;SDS011;28550;51.228;4.528;2023-09-07T00:07:33;12.85;;;8.65;;
42904;SDS011;28550;51.228;4.528;2023-09-07T00:10:00;10.93;;;8.77;;
42904;SDS011;28550;51.228;4.528;2023-09-07T00:12:34;10.65;;;9.00;;
42904;SDS011;28550;51.228;4.528;2023-09-07T00:15:38;12.30;;;9.05;;
42904;SDS011;28550;51.228;4.528;2023-09-07T00:18:04;12.35;;;9.05;;
42904;SDS011;28550;51.228;4.528;2023-09-07T00:20:30;12.00;;;8.52;;
42904;SDS011;28550;51.228;4.528;2023-09-07T00:22:55;13.45;;;9.20;;
42904;SDS011;28550;51.228;4.528;2023-09-07T00:25:21;14.45;;;9.15;;
42904;SDS011;28550;51.228;4.528;2023-09-07T00:27:50;11.75;;;8.93;;
42904;SDS011;28550;51.228;4.528;2023-09-07T00:30:25;14.10;;;8.90;;
42904;SDS011;28550;51.228;4.528;2023-09-07T00:32:52;11.13;;;8.65;;
42904;SDS011;28550;51.228;4.528;2023-09-07T00:35:18;13.65;;;10.07;;
42904;SDS011;28550;51.228;4.528;2023-09-07T00:37:43;16.20;;;10.15;;
42904;SDS011;28550;51.228;4.528;2023-09-07T00:40:09;14.10;;;9.77;;
42904;SDS011;28550;51.228;4.528;2023-09-07T00:42:36;14.50;;;10.20;;
42904;SDS011;28550;51.228;4.528;2023-09-07T00:45:02;14.10;;;9.13;;
42904;SDS011;28550;51.228;4.528;2023-09-07T00:47:28;15.52;;;9.73;;
42904;SDS011;28550;51.228;4.528;2023-09-07T00:49:54;15.70;;;10.00;;
42904;SDS011;28550;51.228;4.528;2023-09-07T00:52:20;15.00;;;10.50;;
42904;SDS011;28550;51.228;4.528;2023-09-07T00:54:46;17.15;;;10.45;;
42904;SDS011;28550;51.228;4.528;2023-09-07T00:57:12;17.25;;;10.00;;
42904;SDS011;28550;51.228;4.528;2023-09-07T00:59:37;11.25;;;9.35;;
42904;SDS011;28550;51.228;4.528;2023-09-07T01:02:05;13.27;;;9.27;;
42904;SDS011;28550;51.228;4.528;2023-09-07T01:04:31;14.52;;;10.13;;
42904;SDS011;28550;51.228;4.528;2023-09-07T01:09:39;13.98;;;10.23;;
42904;SDS011;28550;51.228;4.528;2023-09-07T01:12:07;13.20;;;9.85;;
42904;SDS011;28550;51.228;4.528;2023-09-07T01:14:36;15.90;;;10.70;;
42904;SDS011;28550;51.228;4.528;2023-09-07T01:17:03;14.07;;;10.23;;
42904;SDS011;28550;51.228;4.528;2023-09-07T01:19:30;12.88;;;9.05;;
42904;SDS011;28550;51.228;4.528;2023-09-07T01:22:01;12.20;;;9.93;;
42904;SDS011;28550;51.228;4.528;2023-09-07T01:24:28;12.82;;;9.60;;
42904;SDS011;28550;51.228;4.528;2023-09-07T01:26:55;12.45;;;9.68;;
42904;SDS011;28550;51.228;4.528;2023-09-07T01:29:23;12.35;;;9.80;;
42904;SDS011;28550;51.228;4.528;2023-09-07T01:31:52;13.43;;;9.82;;
42904;SDS011;28550;51.228;4.528;2023-09-07T01:34:18;16.95;;;10.50;;
42904;SDS011;28550;51.228;4.528;2023-09-07T01:36:44;10.90;;;9.38;;
42904;SDS011;28550;51.228;4.528;2023-09-07T01:39:10;15.85;;;9.50;;
42904;SDS011;28550;51.228;4.528;2023-09-07T01:41:36;12.82;;;9.52;;
42904;SDS011;28550;51.228;4.528;2023-09-07T01:44:02;12.32;;;10.10;;
42904;SDS011;28550;51.228;4.528;2023-09-07T01:46:28;11.82;;;9.57;;
42904;SDS011;28550;51.228;4.528;2023-09-07T01:48:54;13.30;;;10.80;;
42904;SDS011;28550;51.228;4.528;2023-09-07T01:51:21;13.85;;;10.38;;
42904;SDS011;28550;51.228;4.528;2023-09-07T01:53:47;15.80;;;10.68;;
42904;SDS011;28550;51.228;4.528;2023-09-07T01:56:16;14.18;;;10.05;;
42904;SDS011;28550;51.228;4.528;2023-09-07T01:58:42;13.10;;;10.45;;
42904;SDS011;28550;51.228;4.528;2023-09-07T02:04:06;14.00;;;10.23;;
42904;SDS011;28550;51.228;4.528;2023-09-07T02:06:32;11.95;;;10.27;;
42904;SDS011;28550;51.228;4.528;2023-09-07T02:08:58;14.13;;;10.80;;
42904;SDS011;28550;51.228;4.528;2023-09-07T02:11:23;15.43;;;11.27;;
42904;SDS011;28550;51.228;4.528;2023-09-07T02:13:49;12.18;;;9.52;;
42904;SDS011;28550;51.228;4.528;2023-09-07T02:16:15;15.80;;;10.63;;
42904;SDS011;28550;51.228;4.528;2023-09-07T02:18:41;17.17;;;10.90;;
42904;SDS011;28550;51.228;4.528;2023-09-07T02:21:15;16.20;;;10.00;;
42904;SDS011;28550;51.228;4.528;2023-09-07T02:23:41;14.05;;;10.75;;
42904;SDS011;28550;51.228;4.528;2023-09-07T02:26:07;14.57;;;10.10;;
42904;SDS011;28550;51.228;4.528;2023-09-07T02:28:35;14.43;;;10.27;;
42904;SDS011;28550;51.228;4.528;2023-09-07T02:31:04;16.92;;;11.15;;
42904;SDS011;28550;51.228;4.528;2023-09-07T02:33:32;14.55;;;11.02;;
42904;SDS011;28550;51.228;4.528;2023-09-07T02:35:58;15.90;;;10.88;;
42904;SDS011;28550;51.228;4.528;2023-09-07T02:38:24;12.05;;;9.82;;
42904;SDS011;28550;51.228;4.528;2023-09-07T02:40:50;13.43;;;10.10;;
42904;SDS011;28550;51.228;4.528;2023-09-07T02:43:15;17.10;;;11.27;;
42904;SDS011;28550;51.228;4.528;2023-09-07T02:45:41;13.93;;;10.32;;
42904;SDS011;28550;51.228;4.528;2023-09-07T02:48:07;15.77;;;11.73;;
42904;SDS011;28550;51.228;4.528;2023-09-07T02:50:33;15.90;;;11.02;;
42904;SDS011;28550;51.228;4.528;2023-09-07T02:53:00;13.40;;;10.93;;
42904;SDS011;28550;51.228;4.528;2023-09-07T02:55:26;17.10;;;11.55;;
42904;SDS011;28550;51.228;4.528;2023-09-07T02:57:53;14.05;;;10.45;;
42904;SDS011;28550;51.228;4.528;2023-09-07T03:00:20;12.85;;;10.23;;
42904;SDS011;28550;51.228;4.528;2023-09-07T03:02:46;14.98;;;11.18;;
42904;SDS011;28550;51.228;4.528;2023-09-07T03:05:13;13.55;;;11.45;;
42904;SDS011;28550;51.228;4.528;2023-09-07T03:07:40;18.60;;;11.55;;
42904;SDS011;28550;51.228;4.528;2023-09-07T03:10:05;15.25;;;11.52;;
42904;SDS011;28550;51.228;4.528;2023-09-07T03:12:31;16.02;;;11.50;;
42904;SDS011;28550;51.228;4.528;2023-09-07T03:14:57;16.25;;;11.27;;
42904;SDS011;28550;51.228;4.528;2023-09-07T03:17:23;15.02;;;10.52;;
42904;SDS011;28550;51.228;4.528;2023-09-07T03:19:48;16.30;;;10.80;;
42904;SDS011;28550;51.228;4.528;2023-09-07T03:22:14;15.25;;;11.23;;
42904;SDS011;28550;51.228;4.528;2023-09-07T03:24:40;15.07;;;11.43;;
42904;SDS011;28550;51.228;4.528;2023-09-07T03:27:06;20.70;;;12.60;;
42904;SDS011;28550;51.228;4.528;2023-09-07T03:29:32;16.67;;;11.98;;
42904;SDS011;28550;51.228;4.528;2023-09-07T03:31:59;17.73;;;12.00;;
42904;SDS011;28550;51.228;4.528;2023-09-07T03:34:25;16.83;;;12.18;;
42904;SDS011;28550;51.228;4.528;2023-09-07T03:36:51;18.25;;;12.23;;
42904;SDS011;28550;51.228;4.528;2023-09-07T03:39:16;17.80;;;11.90;;
42904;SDS011;28550;51.228;4.528;2023-09-07T03:41:44;16.08;;;11.48;;
42904;SDS011;28550;51.228;4.528;2023-09-07T03:44:10;15.65;;;13.10;;
42904;SDS011;28550;51.228;4.528;2023-09-07T03:46:36;15.38;;;11.93;;
42904;SDS011;28550;51.228;4.528;2023-09-07T03:49:02;19.33;;;12.75;;
42904;SDS011;28550;51.228;4.528;2023-09-07T03:51:27;18.02;;;12.52;;
42904;SDS011;28550;51.228;4.528;2023-09-07T03:53:56;20.15;;;12.23;;
42904;SDS011;28550;51.228;4.528;2023-09-07T03:56:22;17.38;;;12.90;;
42904;SDS011;28550;51.228;4.528;2023-09-07T03:58:48;17.02;;;12.60;;
42904;SDS011;28550;51.228;4.528;2023-09-07T04:01:21;16.58;;;12.35;;
42904;SDS011;28550;51.228;4.528;2023-09-07T04:03:47;17.92;;;12.68;;
42904;SDS011;28550;51.228;4.528;2023-09-07T04:06:13;19.58;;;13.05;;
42904;SDS011;28550;51.228;4.528;2023-09-07T04:08:41;18.38;;;13.93;;
42904;SDS011;28550;51.228;4.528;2023-09-07T04:11:07;17.85;;;13.43;;
42904;SDS011;28550;51.228;4.528;2023-09-07T04:13:33;16.88;;;12.63;;
42904;SDS011;28550;51.228;4.528;2023-09-07T04:16:00;15.93;;;13.57;;
42904;SDS011;28550;51.228;4.528;2023-09-07T04:18:26;17.55;;;13.02;;
42904;SDS011;28550;51.228;4.528;2023-09-07T04:20:51;19.15;;;13.43;;
42904;SDS011;28550;51.228;4.528;2023-09-07T04:23:21;20.52;;;14.45;;
42904;SDS011;28550;51.228;4.528;2023-09-07T04:25:47;18.55;;;14.10;;
42904;SDS011;28550;51.228;4.528;2023-09-07T04:28:13;17.77;;;13.55;;
42904;SDS011;28550;51.228;4.528;2023-09-07T04:30:39;16.88;;;12.73;;
42904;SDS011;28550;51.228;4.528;2023-09-07T04:33:08;17.95;;;13.25;;
42904;SDS011;28550;51.228;4.528;2023-09-07T04:35:34;19.25;;;14.02;;
42904;SDS011;28550;51.228;4.528;2023-09-07T04:38:00;18.15;;;14.20;;
42904;SDS011;28550;51.228;4.528;2023-09-07T04:40:26;20.60;;;14.75;;
42904;SDS011;28550;51.228;4.528;2023-09-07T04:42:52;18.33;;;13.75;;
42904;SDS011;28550;51.228;4.528;2023-09-07T04:45:17;17.02;;;13.60;;
42904;SDS011;28550;51.228;4.528;2023-09-07T04:47:43;18.42;;;14.25;;
42904;SDS011;28550;51.228;4.528;2023-09-07T04:50:10;20.80;;;14.88;;
42904;SDS011;28550;51.228;4.528;2023-09-07T04:52:36;21.77;;;14.82;;
42904;SDS011;28550;51.228;4.528;2023-09-07T04:55:02;20.50;;;14.52;;
42904;SDS011;28550;51.228;4.528;2023-09-07T04:57:30;20.33;;;14.35;;
42904;SDS011;28550;51.228;4.528;2023-09-07T04:59:56;19.95;;;14.35;;
42904;SDS011;28550;51.228;4.528;2023-09-07T05:02:22;20.05;;;14.52;;
42904;SDS011;28550;51.228;4.528;2023-09-07T05:04:48;21.70;;;14.88;;
42904;SDS011;28550;51.228;4.528;2023-09-07T05:07:15;26.70;;;14.75;;
42904;SDS011;28550;51.228;4.528;2023-09-07T05:09:41;19.88;;;15.13;;
42904;SDS011;28550;51.228;4.528;2023-09-07T05:12:08;23.75;;;15.00;;
42904;SDS011;28550;51.228;4.528;2023-09-07T05:14:37;19.92;;;14.52;;
42904;SDS011;28550;51.228;4.528;2023-09-07T05:17:05;20.55;;;14.93;;
42904;SDS011;28550;51.228;4.528;2023-09-07T05:19:30;22.90;;;15.30;;
42904;SDS011;28550;51.228;4.528;2023-09-07T05:21:56;22.65;;;15.05;;
42904;SDS011;28550;51.228;4.528;2023-09-07T05:24:24;20.50;;;14.15;;
42904;SDS011;28550;51.228;4.528;2023-09-07T05:26:54;20.13;;;14.57;;
42904;SDS011;28550;51.228;4.528;2023-09-07T05:29:20;22.73;;;15.90;;
42904;SDS011;28550;51.228;4.528;2023-09-07T05:31:46;18.83;;;14.82;;
42904;SDS011;28550;51.228;4.528;2023-09-07T05:34:12;21.17;;;14.73;;
42904;SDS011;28550;51.228;4.528;2023-09-07T05:36:47;20.42;;;14.75;;
42904;SDS011;28550;51.228;4.528;2023-09-07T05:39:16;21.90;;;15.40;;
42904;SDS011;28550;51.228;4.528;2023-09-07T05:41:55;20.98;;;14.85;;
42904;SDS011;28550;51.228;4.528;2023-09-07T05:44:32;19.17;;;14.82;;
42904;SDS011;28550;51.228;4.528;2023-09-07T05:46:58;19.67;;;14.63;;
42904;SDS011;28550;51.228;4.528;2023-09-07T05:49:24;20.75;;;13.90;;
42904;SDS011;28550;51.228;4.528;2023-09-07T05:51:50;23.60;;;14.88;;
42904;SDS011;28550;51.228;4.528;2023-09-07T05:54:22;25.45;;;14.55;;
42904;SDS011;28550;51.228;4.528;2023-09-07T05:59:54;21.95;;;15.05;;
42904;SDS011;28550;51.228;4.528;2023-09-07T06:02:23;18.52;;;14.07;;
42904;SDS011;28550;51.228;4.528;2023-09-07T06:04:49;20.67;;;14.20;;
42904;SDS011;28550;51.228;4.528;2023-09-07T06:07:15;21.17;;;13.90;;
42904;SDS011;28550;51.228;4.528;2023-09-07T06:09:43;20.77;;;14.35;;
42904;SDS011;28550;51.228;4.528;2023-09-07T06:12:11;20.17;;;12.40;;
42904;SDS011;28550;51.228;4.528;2023-09-07T06:14:37;16.85;;;12.50;;
42904;SDS011;28550;51.228;4.528;2023-09-07T06:17:03;19.95;;;12.43;;
42904;SDS011;28550;51.228;4.528;2023-09-07T06:19:29;15.88;;;12.27;;
42904;SDS011;28550;51.228;4.528;2023-09-07T06:21:54;13.00;;;10.15;;
42904;SDS011;28550;51.228;4.528;2023-09-07T06:34:27;14.15;;;10.45;;
42904;SDS011;28550;51.228;4.528;2023-09-07T06:36:54;17.38;;;10.38;;
42904;SDS011;28550;51.228;4.528;2023-09-07T06:39:19;12.52;;;9.95;;
42904;SDS011;28550;51.228;4.528;2023-09-07T06:41:48;12.18;;;9.95;;
42904;SDS011;28550;51.228;4.528;2023-09-07T06:44:16;13.63;;;9.48;;
42904;SDS011;28550;51.228;4.528;2023-09-07T06:46:42;12.30;;;9.95;;
42904;SDS011;28550;51.228;4.528;2023-09-07T06:49:10;13.35;;;9.40;;
42904;SDS011;28550;51.228;4.528;2023-09-07T06:51:39;14.90;;;10.20;;
42904;SDS011;28550;51.228;4.528;2023-09-07T06:54:08;11.35;;;8.63;;
42904;SDS011;28550;51.228;4.528;2023-09-07T06:56:54;16.88;;;9.38;;
42904;SDS011;28550;51.228;4.528;2023-09-07T06:59:21;13.68;;;8.98;;
42904;SDS011;28550;51.228;4.528;2023-09-07T07:01:47;10.60;;;8.05;;
42904;SDS011;28550;51.228;4.528;2023-09-07T07:04:13;12.27;;;8.57;;
42904;SDS011;28550;51.228;4.528;2023-09-07T07:06:39;12.10;;;8.38;;
42904;SDS011;28550;51.228;4.528;2023-09-07T07:09:05;12.00;;;8.80;;
42904;SDS011;28550;51.228;4.528;2023-09-07T07:11:31;11.32;;;8.80;;
42904;SDS011;28550;51.228;4.528;2023-09-07T07:13:57;9.10;;;7.97;;
42904;SDS011;28550;51.228;4.528;2023-09-07T07:16:23;12.90;;;9.98;;
42904;SDS011;28550;51.228;4.528;2023-09-07T07:18:49;12.27;;;8.98;;
42904;SDS011;28550;51.228;4.528;2023-09-07T07:21:22;16.25;;;11.43;;
42904;SDS011;28550;51.228;4.528;2023-09-07T07:23:58;12.13;;;8.90;;
42904;SDS011;28550;51.228;4.528;2023-09-07T07:26:27;10.82;;;8.35;;
42904;SDS011;28550;51.228;4.528;2023-09-07T07:28:53;11.10;;;8.48;;
42904;SDS011;28550;51.228;4.528;2023-09-07T07:31:19;11.30;;;7.65;;
42904;SDS011;28550;51.228;4.528;2023-09-07T07:33:45;10.65;;;7.32;;
42904;SDS011;28550;51.228;4.528;2023-09-07T07:36:13;13.10;;;7.28;;
42904;SDS011;28550;51.228;4.528;2023-09-07T07:38:39;11.70;;;7.68;;
42904;SDS011;28550;51.228;4.528;2023-09-07T07:41:04;8.45;;;7.22;;
42904;SDS011;28550;51.228;4.528;2023-09-07T07:43:31;9.15;;;7.78;;
42904;SDS011;28550;51.228;4.528;2023-09-07T07:45:58;13.02;;;8.25;;
42904;SDS011;28550;51.228;4.528;2023-09-07T07:48:24;10.50;;;6.60;;
42904;SDS011;28550;51.228;4.528;2023-09-07T07:50:50;7.68;;;6.88;;
42904;SDS011;28550;51.228;4.528;2023-09-07T07:53:16;8.57;;;7.68;;
42904;SDS011;28550;51.228;4.528;2023-09-07T07:55:42;10.32;;;7.47;;
42904;SDS011;28550;51.228;4.528;2023-09-07T07:58:08;12.07;;;7.88;;
42904;SDS011;28550;51.228;4.528;2023-09-07T08:00:37;17.48;;;13.48;;
42904;SDS011;28550;51.228;4.528;2023-09-07T08:03:06;13.55;;;7.55;;
42904;SDS011;28550;51.228;4.528;2023-09-07T08:05:33;12.20;;;6.90;;
42904;SDS011;28550;51.228;4.528;2023-09-07T08:07:59;10.10;;;7.45;;
42904;SDS011;28550;51.228;4.528;2023-09-07T08:10:28;12.25;;;7.95;;
42904;SDS011;28550;51.228;4.528;2023-09-07T08:12:57;10.18;;;6.72;;
42904;SDS011;28550;51.228;4.528;2023-09-07T08:15:23;10.48;;;6.65;;
42904;SDS011;28550;51.228;4.528;2023-09-07T08:17:51;9.25;;;6.15;;
42904;SDS011;28550;51.228;4.528;2023-09-07T08:20:36;9.88;;;7.00;;
42904;SDS011;28550;51.228;4.528;2023-09-07T08:23:23;7.73;;;6.93;;
42904;SDS011;28550;51.228;4.528;2023-09-07T08:29:22;8.40;;;7.10;;
42904;SDS011;28550;51.228;4.528;2023-09-07T08:31:52;7.53;;;5.50;;
42904;SDS011;28550;51.228;4.528;2023-09-07T08:37:42;8.77;;;5.63;;
42904;SDS011;28550;51.228;4.528;2023-09-07T08:40:59;6.65;;;5.57;;
42904;SDS011;28550;51.228;4.528;2023-09-07T08:43:35;10.75;;;7.03;;
42904;SDS011;28550;51.228;4.528;2023-09-07T08:46:19;10.15;;;6.38;;
42904;SDS011;28550;51.228;4.528;2023-09-07T08:49:00;6.90;;;5.68;;
42904;SDS011;28550;51.228;4.528;2023-09-07T08:51:32;7.95;;;5.75;;
42904;SDS011;28550;51.228;4.528;2023-09-07T08:54:02;6.53;;;5.43;;
42904;SDS011;28550;51.228;4.528;2023-09-07T08:56:48;5.63;;;5.07;;
42904;SDS011;28550;51.228;4.528;2023-09-07T08:59:22;7.85;;;5.68;;
42904;SDS011;28550;51.228;4.528;2023-09-07T09:01:50;8.85;;;5.47;;
42904;SDS011;28550;51.228;4.528;2023-09-07T09:04:29;9.48;;;5.70;;
42904;SDS011;28550;51.228;4.528;2023-09-07T09:10:02;11.52;;;6.05;;
42904;SDS011;28550;51.228;4.528;2023-09-07T09:12:32;6.68;;;4.90;;
42904;SDS011;28550;51.228;4.528;2023-09-07T09:14:58;5.72;;;5.22;;
42904;SDS011;28550;51.228;4.528;2023-09-07T09:17:26;8.43;;;5.45;;
42904;SDS011;28550;51.228;4.528;2023-09-07T09:19:52;6.20;;;5.22;;
42904;SDS011;28550;51.228;4.528;2023-09-07T09:25:05;9.15;;;4.60;;
42904;SDS011;28550;51.228;4.528;2023-09-07T09:27:32;6.10;;;4.18;;
42904;SDS011;28550;51.228;4.528;2023-09-07T09:30:01;7.90;;;4.75;;
42904;SDS011;28550;51.228;4.528;2023-09-07T09:32:41;5.85;;;4.50;;
42904;SDS011;28550;51.228;4.528;2023-09-07T09:35:13;5.68;;;4.07;;
42904;SDS011;28550;51.228;4.528;2023-09-07T09:40:33;7.05;;;4.50;;
42904;SDS011;28550;51.228;4.528;2023-09-07T09:43:01;6.97;;;3.97;;
42904;SDS011;28550;51.228;4.528;2023-09-07T09:45:41;6.63;;;4.45;;
42904;SDS011;28550;51.228;4.528;2023-09-07T09:48:07;10.98;;;4.80;;
42904;SDS011;28550;51.228;4.528;2023-09-07T09:50:52;8.02;;;4.60;;
42904;SDS011;28550;51.228;4.528;2023-09-07T09:53:30;11.25;;;5.00;;
42904;SDS011;28550;51.228;4.528;2023-09-07T09:55:58;6.75;;;3.50;;
42904;SDS011;28550;51.228;4.528;2023-09-07T09:58:32;10.20;;;4.47;;
42904;SDS011;28550;51.228;4.528;2023-09-07T10:01:04;5.38;;;4.50;;
42904;SDS011;28550;51.228;4.528;2023-09-07T10:03:38;5.82;;;3.60;;
42904;SDS011;28550;51.228;4.528;2023-09-07T10:06:19;4.72;;;3.15;;
42904;SDS011;28550;51.228;4.528;2023-09-07T10:09:03;3.83;;;3.50;;
42904;SDS011;28550;51.228;4.528;2023-09-07T10:11:35;4.78;;;3.15;;
42904;SDS011;28550;51.228;4.528;2023-09-07T10:28:35;6.13;;;3.55;;
42904;SDS011;28550;51.228;4.528;2023-09-07T10:31:13;4.30;;;3.30;;
42904;SDS011;28550;51.228;4.528;2023-09-07T10:37:16;5.35;;;3.70;;
42904;SDS011;28550;51.228;4.528;2023-09-07T10:39:45;4.63;;;3.60;;
42904;SDS011;28550;51.228;4.528;2023-09-07T10:42:32;4.55;;;3.45;;
42904;SDS011;28550;51.228;4.528;2023-09-07T10:45:15;4.07;;;3.53;;
42904;SDS011;28550;51.228;4.528;2023-09-07T10:48:08;4.47;;;3.42;;
42904;SDS011;28550;51.228;4.528;2023-09-07T10:50:46;4.93;;;3.58;;
42904;SDS011;28550;51.228;4.528;2023-09-07T10:53:13;5.38;;;3.65;;
42904;SDS011;28550;51.228;4.528;2023-09-07T10:55:40;5.00;;;3.63;;
42904;SDS011;28550;51.228;4.528;2023-09-07T10:58:23;5.72;;;4.22;;
42904;SDS011;28550;51.228;4.528;2023-09-07T11:01:05;6.13;;;3.60;;
42904;SDS011;28550;51.228;4.528;2023-09-07T11:03:42;4.20;;;3.53;;
42904;SDS011;28550;51.228;4.528;2023-09-07T11:09:23;3.55;;;3.20;;
42904;SDS011;28550;51.228;4.528;2023-09-07T11:11:49;5.23;;;3.60;;
42904;SDS011;28550;51.228;4.528;2023-09-07T11:14:15;3.80;;;3.40;;
42904;SDS011;28550;51.228;4.528;2023-09-07T11:16:48;5.97;;;3.63;;
42904;SDS011;28550;51.228;4.528;2023-09-07T11:19:35;6.53;;;3.88;;
42904;SDS011;28550;51.228;4.528;2023-09-07T11:22:14;5.40;;;3.33;;
42904;SDS011;28550;51.228;4.528;2023-09-07T11:25:38;4.80;;;3.40;;
42904;SDS011;28550;51.228;4.528;2023-09-07T11:28:21;4.50;;;3.22;;
42904;SDS011;28550;51.228;4.528;2023-09-07T11:33:59;4.70;;;3.75;;
42904;SDS011;28550;51.228;4.528;2023-09-07T11:42:50;4.45;;;3.10;;
42904;SDS011;28550;51.228;4.528;2023-09-07T11:45:30;4.93;;;3.25;;
42904;SDS011;28550;51.228;4.528;2023-09-07T11:51:33;4.38;;;2.85;;
42904;SDS011;28550;51.228;4.528;2023-09-07T11:54:02;4.03;;;2.92;;
42904;SDS011;28550;51.228;4.528;2023-09-07T12:03:12;4.30;;;3.55;;
42904;SDS011;28550;51.228;4.528;2023-09-07T12:06:30;5.57;;;3.60;;
42904;SDS011;28550;51.228;4.528;2023-09-07T12:09:00;6.03;;;3.20;;
42904;SDS011;28550;51.228;4.528;2023-09-07T12:11:36;4.75;;;3.13;;
42904;SDS011;28550;51.228;4.528;2023-09-07T12:14:02;7.07;;;3.47;;
42904;SDS011;28550;51.228;4.528;2023-09-07T12:16:37;3.72;;;3.42;;
42904;SDS011;28550;51.228;4.528;2023-09-07T12:19:07;7.22;;;3.40;;
42904;SDS011;28550;51.228;4.528;2023-09-07T12:21:34;4.65;;;3.10;;
42904;SDS011;28550;51.228;4.528;2023-09-07T12:24:33;4.38;;;3.80;;
42904;SDS011;28550;51.228;4.528;2023-09-07T12:27:20;4.95;;;3.17;;
42904;SDS011;28550;51.228;4.528;2023-09-07T12:29:46;5.50;;;3.47;;
42904;SDS011;28550;51.228;4.528;2023-09-07T12:35:08;4.95;;;3.53;;
42904;SDS011;28550;51.228;4.528;2023-09-07T12:37:51;4.47;;;3.97;;
42904;SDS011;28550;51.228;4.528;2023-09-07T12:40:41;5.43;;;3.37;;
42904;SDS011;28550;51.228;4.528;2023-09-07T12:43:30;4.03;;;3.67;;
42904;SDS011;28550;51.228;4.528;2023-09-07T12:49:21;8.95;;;4.10;;
42904;SDS011;28550;51.228;4.528;2023-09-07T12:51:53;6.13;;;3.22;;
42904;SDS011;28550;51.228;4.528;2023-09-07T12:54:19;3.60;;;2.63;;
42904;SDS011;28550;51.228;4.528;2023-09-07T12:56:58;4.70;;;3.28;;
42904;SDS011;28550;51.228;4.528;2023-09-07T13:00:15;4.25;;;3.63;;
42904;SDS011;28550;51.228;4.528;2023-09-07T13:03:01;5.38;;;3.72;;
42904;SDS011;28550;51.228;4.528;2023-09-07T13:05:37;7.65;;;4.00;;
42904;SDS011;28550;51.228;4.528;2023-09-07T13:08:12;4.22;;;3.25;;
42904;SDS011;28550;51.228;4.528;2023-09-07T13:11:09;3.58;;;3.13;;
42904;SDS011;28550;51.228;4.528;2023-09-07T13:13:40;6.72;;;3.75;;
42904;SDS011;28550;51.228;4.528;2023-09-07T13:16:22;4.65;;;3.05;;
42904;SDS011;28550;51.228;4.528;2023-09-07T13:19:04;5.47;;;3.38;;
42904;SDS011;28550;51.228;4.528;2023-09-07T13:21:36;4.28;;;3.42;;
42904;SDS011;28550;51.228;4.528;2023-09-07T13:24:23;5.07;;;3.80;;
42904;SDS011;28550;51.228;4.528;2023-09-07T13:27:06;5.63;;;3.85;;
42904;SDS011;28550;51.228;4.528;2023-09-07T13:29:40;4.90;;;4.07;;
42904;SDS011;28550;51.228;4.528;2023-09-07T13:32:19;4.18;;;3.83;;
42904;SDS011;28550;51.228;4.528;2023-09-07T13:38:09;10.85;;;3.45;;
42904;SDS011;28550;51.228;4.528;2023-09-07T13:40:40;7.43;;;3.65;;
42904;SDS011;28550;51.228;4.528;2023-09-07T13:43:15;5.05;;;4.15;;
42904;SDS011;28550;51.228;4.528;2023-09-07T13:45:40;4.68;;;3.90;;
42904;SDS011;28550;51.228;4.528;2023-09-07T13:48:06;4.47;;;3.92;;
42904;SDS011;28550;51.228;4.528;2023-09-07T13:50:38;5.95;;;3.75;;
42904;SDS011;28550;51.228;4.528;2023-09-07T13:53:04;4.60;;;3.75;;
42904;SDS011;28550;51.228;4.528;2023-09-07T13:55:30;4.50;;;4.10;;
42904;SDS011;28550;51.228;4.528;2023-09-07T13:57:59;7.13;;;3.60;;
42904;SDS011;28550;51.228;4.528;2023-09-07T14:00:35;5.80;;;4.00;;
42904;SDS011;28550;51.228;4.528;2023-09-07T14:03:02;7.55;;;4.32;;
42904;SDS011;28550;51.228;4.528;2023-09-07T14:05:28;5.95;;;3.72;;
42904;SDS011;28550;51.228;4.528;2023-09-07T14:07:54;5.63;;;3.60;;
42904;SDS011;28550;51.228;4.528;2023-09-07T14:10:22;6.45;;;3.90;;
42904;SDS011;28550;51.228;4.528;2023-09-07T14:12:50;4.32;;;3.75;;
42904;SDS011;28550;51.228;4.528;2023-09-07T14:15:20;4.30;;;3.60;;
42904;SDS011;28550;51.228;4.528;2023-09-07T14:17:45;5.85;;;3.78;;
42904;SDS011;28550;51.228;4.528;2023-09-07T14:20:11;4.90;;;3.95;;
42904;SDS011;28550;51.228;4.528;2023-09-07T14:22:50;5.43;;;3.67;;
42904;SDS011;28550;51.228;4.528;2023-09-07T14:25:18;6.38;;;4.18;;
42904;SDS011;28550;51.228;4.528;2023-09-07T14:27:44;5.75;;;4.25;;
42904;SDS011;28550;51.228;4.528;2023-09-07T14:30:10;7.70;;;4.78;;
42904;SDS011;28550;51.228;4.528;2023-09-07T14:32:36;7.90;;;4.80;;
42904;SDS011;28550;51.228;4.528;2023-09-07T14:35:02;6.47;;;4.90;;
42904;SDS011;28550;51.228;4.528;2023-09-07T14:37:27;10.07;;;4.63;;
42904;SDS011;28550;51.228;4.528;2023-09-07T14:39:53;5.90;;;4.50;;
42904;SDS011;28550;51.228;4.528;2023-09-07T14:42:24;5.20;;;4.38;;
42904;SDS011;28550;51.228;4.528;2023-09-07T14:44:51;4.97;;;3.83;;
42904;SDS011;28550;51.228;4.528;2023-09-07T14:47:19;5.18;;;3.88;;
42904;SDS011;28550;51.228;4.528;2023-09-07T14:49:50;5.72;;;4.38;;
42904;SDS011;28550;51.228;4.528;2023-09-07T14:52:17;6.22;;;4.35;;
42904;SDS011;28550;51.228;4.528;2023-09-07T14:54:50;5.68;;;4.15;;
42904;SDS011;28550;51.228;4.528;2023-09-07T14:57:19;5.50;;;4.43;;
42904;SDS011;28550;51.228;4.528;2023-09-07T15:02:42;5.50;;;4.10;;
42904;SDS011;28550;51.228;4.528;2023-09-07T15:08:39;5.03;;;4.30;;
42904;SDS011;28550;51.228;4.528;2023-09-07T15:11:24;4.82;;;4.40;;
42904;SDS011;28550;51.228;4.528;2023-09-07T15:13:50;5.88;;;4.53;;
42904;SDS011;28550;51.228;4.528;2023-09-07T15:16:17;5.10;;;4.45;;
42904;SDS011;28550;51.228;4.528;2023-09-07T15:18:43;4.75;;;4.32;;
42904;SDS011;28550;51.228;4.528;2023-09-07T15:21:10;6.47;;;4.60;;
42904;SDS011;28550;51.228;4.528;2023-09-07T15:26:42;7.38;;;4.18;;
42904;SDS011;28550;51.228;4.528;2023-09-07T15:29:11;7.20;;;4.45;;
42904;SDS011;28550;51.228;4.528;2023-09-07T15:31:43;8.48;;;4.93;;
42904;SDS011;28550;51.228;4.528;2023-09-07T15:34:09;6.65;;;4.65;;
42904;SDS011;28550;51.228;4.528;2023-09-07T15:36:38;6.53;;;4.53;;
42904;SDS011;28550;51.228;4.528;2023-09-07T15:39:06;4.80;;;4.40;;
42904;SDS011;28550;51.228;4.528;2023-09-07T15:41:32;7.15;;;5.03;;
42904;SDS011;28550;51.228;4.528;2023-09-07T15:46:30;11.73;;;5.17;;
42904;SDS011;28550;51.228;4.528;2023-09-07T15:54:56;7.50;;;5.28;;
42904;SDS011;28550;51.228;4.528;2023-09-07T16:00:19;7.03;;;5.57;;
42904;SDS011;28550;51.228;4.528;2023-09-07T16:02:56;7.22;;;5.63;;
42904;SDS011;28550;51.228;4.528;2023-09-07T16:05:21;8.95;;;5.32;;
42904;SDS011;28550;51.228;4.528;2023-09-07T16:07:52;5.75;;;5.15;;
42904;SDS011;28550;51.228;4.528;2023-09-07T16:10:18;9.20;;;5.32;;
42904;SDS011;28550;51.228;4.528;2023-09-07T16:12:44;8.85;;;5.82;;
42904;SDS011;28550;51.228;4.528;2023-09-07T16:20:15;9.68;;;5.90;;
42904;SDS011;28550;51.228;4.528;2023-09-07T16:22:41;8.13;;;5.25;;
42904;SDS011;28550;51.228;4.528;2023-09-07T16:25:07;5.72;;;5.18;;
42904;SDS011;28550;51.228;4.528;2023-09-07T16:27:33;7.18;;;5.80;;
42904;SDS011;28550;51.228;4.528;2023-09-07T16:30:12;8.10;;;6.47;;
42904;SDS011;28550;51.228;4.528;2023-09-07T16:32:38;9.68;;;7.10;;
42904;SDS011;28550;51.228;4.528;2023-09-07T16:35:09;8.15;;;6.57;;
42904;SDS011;28550;51.228;4.528;2023-09-07T16:37:35;11.30;;;7.00;;
42904;SDS011;28550;51.228;4.528;2023-09-07T16:40:06;8.40;;;7.00;;
42904;SDS011;28550;51.228;4.528;2023-09-07T16:42:37;6.88;;;6.22;;